aviador You're here:

FHAW Decoded Metar

WIDE AWAKE in ST. HELENA
Report Time2017-11-25 08:50:00
UTC Time2017-11-25 09:26:46
Flight Rules mvfr MVFR
Wind170° at 09 kt
W.Decomp.*RWY 13: 5.0 kt HW 7.5 kt RCW
W.Rank170° ranks 7
Current wind is below 170° avg. (11.7)
Visibility6000 m
Phenomena:Light Shower Rain
Clouds:Few 003 Hf
Scattered 007 Hf
Broken 035 Hf
Expected CloudBase > 400 ft AGL from Temp-Dew spread
Ceiling3,500 ft
Temp22°C (ISA +8)
Dew Point21°C (94% RH)
QNH1017 hPa
Density Alt1,329 ft
Elevation259 ft
Report Wrong Elevation
Raw Report
FHAW 250850Z 17009KT 6000 -SHRA FEW003 SCT007 BKN035 22/21 Q1017
GRN=

Extra information for FHAW:More info

Metar Taf Metar & Taf Last 4 Metars F.Rules Stats Wind Profile Meteogram Temp Stats Airport Information Weather charts Add Link Nearby VenuesMetar ALERT Operation Metar Decoded Social comments